Time;durP1;ratioP1;P1;durP2;ratioP2;P2;SDS_P1;SDS_P2;PMS_P1;PMS_P2;Temp;Humidity;BMP_temperature;BMP_pressure;BME280_temperature;BME280_humidity;BME280_pressure;Samples;Min_cycle;Max_cycle;Signal;HPM_P1;HPM_P2
2023/05/16 00:01:56;;;;;;;9.32;6.70;;;10.70;99.90;;;;;;7594142;19;21276;-78
2023/05/16 00:04:28;;;;;;;8.52;6.55;;;10.70;99.90;;;;;;7599020;19;20021;-79
2023/05/16 00:07:02;;;;;;;7.18;5.70;;;10.70;99.90;;;;;;7603362;19;20614;-78
2023/05/16 00:09:34;;;;;;;7.97;5.93;;;10.70;99.90;;;;;;7604937;19;20626;-78
2023/05/16 00:12:07;;;;;;;9.57;6.15;;;10.70;99.90;;;;;;7601231;19;20019;-77
2023/05/16 00:14:39;;;;;;;6.70;5.60;;;10.70;99.90;;;;;;7599440;19;20092;-77
2023/05/16 00:17:12;;;;;;;10.85;6.53;;;10.70;99.90;;;;;;7601059;19;20739;-77
2023/05/16 00:19:46;;;;;;;8.38;6.00;;;10.70;99.90;;;;;;7600573;19;20094;-77
2023/05/16 00:22:19;;;;;;;7.68;5.75;;;10.70;99.90;;;;;;7601523;19;21023;-77
2023/05/16 00:24:51;;;;;;;7.87;5.73;;;10.60;99.90;;;;;;7603244;19;20036;-77
2023/05/16 00:27:24;;;;;;;10.10;6.15;;;10.60;99.90;;;;;;7596767;19;20014;-78
2023/05/16 00:29:56;;;;;;;7.78;5.97;;;10.60;99.90;;;;;;7603056;19;20026;-78
2023/05/16 00:32:29;;;;;;;6.93;5.50;;;10.60;99.90;;;;;;7599012;19;20102;-77
2023/05/16 00:35:01;;;;;;;9.18;6.20;;;10.60;99.90;;;;;;7605611;19;20028;-78
2023/05/16 00:37:34;;;;;;;11.50;6.23;;;10.70;99.90;;;;;;7595498;19;20018;-77
2023/05/16 00:40:07;;;;;;;8.68;6.20;;;10.60;99.90;;;;;;7600874;19;20023;-77
2023/05/16 00:42:40;;;;;;;9.55;6.43;;;10.60;99.90;;;;;;7599863;19;20018;-76
2023/05/16 00:45:12;;;;;;;8.40;6.57;;;10.60;99.90;;;;;;7605059;19;20129;-77
2023/05/16 00:47:44;;;;;;;10.13;6.82;;;10.60;99.90;;;;;;7596408;19;20119;-77
2023/05/16 00:50:18;;;;;;;9.63;6.37;;;10.60;99.90;;;;;;7598038;19;20398;-78
2023/05/16 00:52:50;;;;;;;9.93;7.10;;;10.60;99.90;;;;;;7603915;19;20053;-78
2023/05/16 00:55:22;;;;;;;8.60;6.18;;;10.70;99.90;;;;;;7599851;19;20106;-77
2023/05/16 00:57:57;;;;;;;10.25;6.03;;;10.70;99.90;;;;;;7594526;19;20020;-77
2023/05/16 01:00:29;;;;;;;7.70;6.10;;;10.60;99.90;;;;;;7601076;19;20945;-77
2023/05/16 01:03:04;;;;;;;9.88;6.40;;;10.60;99.90;;;;;;7591370;19;20011;-77
2023/05/16 01:05:36;;;;;;;8.85;6.47;;;10.60;99.90;;;;;;7593827;19;20193;-78
2023/05/16 01:08:13;;;;;;;9.65;5.78;;;10.60;99.90;;;;;;7607535;19;20022;-79
2023/05/16 01:11:07;;;;;;;11.30;6.63;;;10.70;99.90;;;;;;7591301;19;20098;-79
2023/05/16 01:14:13;;;;;;;8.70;5.82;;;10.70;99.90;;;;;;7603783;19;21533;-79
2023/05/16 01:16:48;;;;;;;11.15;6.47;;;10.70;99.90;;;;;;7598469;19;20297;-78
2023/05/16 01:19:46;;;;;;;8.45;6.38;;;10.60;99.90;;;;;;7596129;19;20053;-78
2023/05/16 01:22:47;;;;;;;9.30;6.88;;;10.70;99.90;;;;;;7602348;19;20017;-79
2023/05/16 01:25:56;;;;;;;9.43;6.18;;;10.70;99.90;;;;;;7603999;19;20758;-78
2023/05/16 01:28:29;;;;;;;13.52;6.72;;;10.60;99.90;;;;;;7603663;19;20041;-78
2023/05/16 01:31:02;;;;;;;8.80;6.60;;;10.60;99.90;;;;;;7607326;19;20098;-78
2023/05/16 01:33:34;;;;;;;13.27;6.75;;;10.60;99.90;;;;;;7616594;19;20019;-78
2023/05/16 01:36:37;;;;;;;11.38;6.50;;;10.60;99.90;;;;;;7613329;19;20014;-78
2023/05/16 01:39:20;;;;;;;11.05;7.25;;;10.60;99.90;;;;;;7606115;19;20017;-78
2023/05/16 01:42:03;;;;;;;11.20;7.50;;;10.60;99.90;;;;;;7604868;19;20081;-78
2023/05/16 01:44:53;;;;;;;9.90;7.68;;;10.60;99.90;;;;;;7605358;19;20034;-79
2023/05/16 01:47:28;;;;;;;10.13;6.85;;;10.50;99.90;;;;;;7590031;19;20089;-77
2023/05/16 01:50:00;;;;;;;11.93;8.05;;;10.50;99.90;;;;;;7596535;19;20039;-78
2023/05/16 01:52:55;;;;;;;11.77;7.35;;;10.50;99.90;;;;;;7607332;19;20022;-78
2023/05/16 01:55:59;;;;;;;11.82;7.65;;;10.50;99.90;;;;;;7605312;19;20139;-79
2023/05/16 01:58:33;;;;;;;15.50;8.23;;;10.50;99.90;;;;;;7601052;19;20007;-79
2023/05/16 02:01:06;;;;;;;13.45;9.02;;;10.50;99.90;;;;;;7605434;19;20030;-78
2023/05/16 02:03:38;;;;;;;11.52;8.70;;;10.60;99.90;;;;;;7603082;19;20014;-79
2023/05/16 02:06:11;;;;;;;11.67;8.57;;;10.60;99.90;;;;;;7607680;19;20022;-78
2023/05/16 02:08:43;;;;;;;13.88;8.13;;;10.50;99.90;;;;;;7607736;19;22751;-78
2023/05/16 02:11:16;;;;;;;11.40;8.57;;;10.50;99.90;;;;;;7602441;19;20002;-78
2023/05/16 02:13:48;;;;;;;11.40;7.90;;;10.50;99.90;;;;;;7603089;19;20018;-78
2023/05/16 02:16:21;;;;;;;14.43;7.47;;;10.50;99.90;;;;;;7595674;19;20019;-78
2023/05/16 02:18:55;;;;;;;10.75;7.90;;;10.50;99.90;;;;;;7604046;19;20030;-78
2023/05/16 02:21:27;;;;;;;11.90;7.97;;;10.50;99.90;;;;;;7604576;19;20018;-79
2023/05/16 02:24:00;;;;;;;13.10;8.40;;;10.50;99.90;;;;;;7606556;19;20072;-79
2023/05/16 02:26:32;;;;;;;11.90;8.05;;;10.50;99.90;;;;;;7602778;19;20021;-78
2023/05/16 02:29:05;;;;;;;10.20;7.75;;;10.50;99.90;;;;;;7609611;19;20019;-79
2023/05/16 02:31:37;;;;;;;16.10;8.52;;;10.50;99.90;;;;;;7606157;19;20445;-78
2023/05/16 02:34:10;;;;;;;13.75;8.50;;;10.60;99.90;;;;;;7607287;19;20014;-78
2023/05/16 02:36:43;;;;;;;13.32;8.65;;;10.60;99.90;;;;;;7602700;19;20049;-79
2023/05/16 02:39:15;;;;;;;11.68;8.68;;;10.50;99.90;;;;;;7601252;19;21452;-78
2023/05/16 02:41:47;;;;;;;10.93;7.68;;;10.50;99.90;;;;;;7605267;19;20046;-78
2023/05/16 02:44:20;;;;;;;11.07;8.23;;;10.40;99.90;;;;;;7604304;19;20026;-78
2023/05/16 02:46:53;;;;;;;11.85;8.75;;;10.50;99.90;;;;;;7601000;19;20049;-78
2023/05/16 02:49:29;;;;;;;14.07;9.15;;;10.50;99.90;;;;;;7599938;19;20022;-78
2023/05/16 02:52:02;;;;;;;12.05;8.82;;;10.60;99.90;;;;;;7608602;19;20024;-78
2023/05/16 02:54:35;;;;;;;12.18;8.20;;;10.50;99.90;;;;;;7602136;19;20014;-78
2023/05/16 02:57:08;;;;;;;11.95;8.60;;;10.50;99.90;;;;;;7591462;19;20011;-78
2023/05/16 02:59:44;;;;;;;12.55;7.65;;;10.50;99.90;;;;;;7587410;19;20022;-78
2023/05/16 03:02:17;;;;;;;13.98;8.25;;;10.40;99.90;;;;;;7608064;19;20014;-78
2023/05/16 03:04:49;;;;;;;14.55;9.27;;;10.40;99.90;;;;;;7601456;19;20052;-79
2023/05/16 03:07:22;;;;;;;14.52;7.45;;;10.40;99.90;;;;;;7609425;19;20353;-78
2023/05/16 03:09:54;;;;;;;15.20;8.32;;;10.40;99.90;;;;;;7597490;19;20026;-78
2023/05/16 03:12:27;;;;;;;11.77;8.50;;;10.40;99.90;;;;;;7608830;19;20018;-78
2023/05/16 03:15:01;;;;;;;12.95;7.57;;;10.50;99.90;;;;;;7607802;19;20786;-77
2023/05/16 03:17:34;;;;;;;11.45;7.95;;;10.50;99.90;;;;;;7598382;19;20022;-77
2023/05/16 03:20:08;;;;;;;12.07;8.70;;;10.50;99.90;;;;;;7580027;19;20019;-78
2023/05/16 03:22:41;;;;;;;13.07;8.40;;;10.50;99.90;;;;;;7597468;19;20161;-78
2023/05/16 03:25:15;;;;;;;13.25;8.25;;;10.50;99.90;;;;;;7574855;19;20011;-77
2023/05/16 03:27:47;;;;;;;11.38;8.80;;;10.50;99.90;;;;;;7582695;19;20026;-78
2023/05/16 03:30:23;;;;;;;11.50;8.25;;;10.50;99.90;;;;;;7601901;19;20015;-78
2023/05/16 03:32:56;;;;;;;17.80;9.35;;;10.40;99.90;;;;;;7599262;19;20014;-78
2023/05/16 03:35:29;;;;;;;10.90;8.40;;;10.50;99.90;;;;;;7605231;19;20471;-78
2023/05/16 03:38:02;;;;;;;13.85;9.38;;;10.40;99.90;;;;;;7593844;19;21941;-78
2023/05/16 03:40:35;;;;;;;14.38;9.50;;;10.40;99.90;;;;;;7594335;19;20023;-78
2023/05/16 03:43:08;;;;;;;13.40;8.95;;;10.40;99.90;;;;;;7590853;19;21056;-78
2023/05/16 03:45:40;;;;;;;14.00;9.52;;;10.40;99.90;;;;;;7599434;19;20029;-79
2023/05/16 03:48:12;;;;;;;13.70;9.07;;;10.40;99.90;;;;;;7593675;19;20017;-78
2023/05/16 03:50:45;;;;;;;12.97;8.73;;;10.40;99.90;;;;;;7590056;19;20018;-78
2023/05/16 03:53:18;;;;;;;13.00;8.30;;;10.40;99.90;;;;;;7590930;19;20015;-77
2023/05/16 03:55:50;;;;;;;12.47;8.40;;;10.40;99.90;;;;;;7586298;19;20602;-79
2023/05/16 03:58:23;;;;;;;14.98;8.43;;;10.40;99.90;;;;;;7595498;19;21111;-79
2023/05/16 04:00:55;;;;;;;13.13;8.80;;;10.40;99.90;;;;;;7590551;19;20881;-78
2023/05/16 04:03:29;;;;;;;16.27;9.65;;;10.50;99.90;;;;;;7586967;19;20023;-79
2023/05/16 04:06:01;;;;;;;;;;;10.40;99.90;;;;;;7596758;19;20021;-77
2023/05/16 04:08:34;;;;;;;16.20;10.57;;;10.40;99.90;;;;;;7588821;19;19931;-76
2023/05/16 04:11:06;;;;;;;12.73;9.55;;;10.40;99.90;;;;;;7585536;19;20010;-75
2023/05/16 04:13:40;;;;;;;14.70;10.52;;;10.40;99.90;;;;;;7593416;19;20019;-75
2023/05/16 04:16:15;;;;;;;15.55;11.27;;;10.50;99.90;;;;;;7587456;19;20017;-75
2023/05/16 04:18:48;;;;;;;14.23;9.82;;;10.50;99.90;;;;;;7585973;19;20025;-75
2023/05/16 04:21:21;;;;;;;17.25;10.98;;;10.50;99.90;;;;;;7590656;19;20043;-75
2023/05/16 04:23:54;;;;;;;17.05;10.63;;;10.50;99.90;;;;;;7576914;19;20018;-75
2023/05/16 04:26:29;;;;;;;15.15;10.93;;;10.40;99.90;;;;;;7568622;19;20273;-74
2023/05/16 04:29:01;;;;;;;19.75;11.65;;;10.50;99.90;;;;;;7581278;19;20023;-74
2023/05/16 04:31:34;;;;;;;19.10;11.13;;;10.50;99.90;;;;;;7567410;19;20325;-75
2023/05/16 04:34:07;;;;;;;17.60;10.88;;;10.40;99.90;;;;;;7552629;19;20086;-74
2023/05/16 04:36:40;;;;;;;13.80;9.93;;;10.50;99.90;;;;;;7576570;19;20116;-74
2023/05/16 04:39:12;;;;;;;14.45;10.75;;;10.40;99.90;;;;;;7553777;19;20027;-74
2023/05/16 04:41:45;;;;;;;15.48;10.57;;;10.40;99.90;;;;;;7570048;19;20019;-74
2023/05/16 04:44:17;;;;;;;19.30;10.03;;;10.40;99.90;;;;;;7566079;19;20567;-74
2023/05/16 04:46:50;;;;;;;15.47;10.50;;;10.40;99.90;;;;;;7564566;19;20018;-74
2023/05/16 04:49:23;;;;;;;16.38;10.68;;;10.40;99.90;;;;;;7573027;19;20287;-74
2023/05/16 04:51:56;;;;;;;16.75;11.32;;;10.40;99.90;;;;;;7571435;19;20015;-74
2023/05/16 04:54:28;;;;;;;20.90;11.70;;;10.40;99.90;;;;;;7566860;19;20019;-74
2023/05/16 04:57:01;;;;;;;17.88;11.13;;;10.50;99.90;;;;;;7576516;19;20014;-74
2023/05/16 04:59:33;;;;;;;17.70;11.00;;;10.50;99.90;;;;;;7574561;19;20049;-74
2023/05/16 05:02:06;;;;;;;17.83;11.57;;;10.50;99.90;;;;;;7577866;19;20026;-74
2023/05/16 05:04:39;;;;;;;19.95;11.30;;;10.50;99.90;;;;;;7567797;19;20026;-74
2023/05/16 05:07:11;;;;;;;16.98;11.43;;;10.50;99.90;;;;;;7593229;19;20015;-74
2023/05/16 05:09:45;;;;;;;19.80;12.93;;;10.50;99.90;;;;;;7582138;19;20025;-74
2023/05/16 05:12:17;;;;;;;21.00;12.32;;;10.50;99.90;;;;;;7578154;19;20420;-74
2023/05/16 05:14:50;;;;;;;19.17;11.45;;;10.50;99.90;;;;;;7589635;19;20018;-74
2023/05/16 05:17:22;;;;;;;19.50;13.02;;;10.50;99.90;;;;;;7585425;19;20561;-74
2023/05/16 05:19:55;;;;;;;17.55;11.98;;;10.60;99.90;;;;;;7574826;19;20053;-74
2023/05/16 05:22:28;;;;;;;19.10;12.40;;;10.60;99.90;;;;;;7578399;19;20014;-74
2023/05/16 05:25:00;;;;;;;18.98;12.80;;;10.50;99.90;;;;;;7578660;19;20078;-74
2023/05/16 05:27:32;;;;;;;25.02;13.75;;;10.60;99.90;;;;;;7561270;19;20022;-74
2023/05/16 05:30:05;;;;;;;19.75;12.88;;;10.50;99.90;;;;;;7572900;19;20383;-74
2023/05/16 05:32:39;;;;;;;20.02;13.85;;;10.50;99.90;;;;;;7593983;19;20034;-73
2023/05/16 05:35:11;;;;;;;23.27;13.95;;;10.60;99.90;;;;;;7586136;19;20051;-74
2023/05/16 05:37:43;;;;;;;23.52;13.50;;;10.60;99.90;;;;;;7569918;19;20014;-73
2023/05/16 05:40:16;;;;;;;25.83;13.00;;;10.50;99.90;;;;;;7599295;19;20022;-74
2023/05/16 05:42:49;;;;;;;22.02;14.40;;;10.60;99.90;;;;;;7599245;19;20024;-74
2023/05/16 05:45:21;;;;;;;24.08;14.73;;;10.60;99.90;;;;;;7572759;19;20011;-73
2023/05/16 05:47:53;;;;;;;22.88;15.32;;;10.70;99.90;;;;;;7542102;19;20128;-74
2023/05/16 05:50:26;;;;;;;21.30;14.30;;;10.70;99.90;;;;;;7571843;19;20029;-74
2023/05/16 05:52:59;;;;;;;23.40;15.43;;;10.70;99.90;;;;;;7585640;19;20451;-74
2023/05/16 05:55:31;;;;;;;27.60;15.32;;;10.80;99.90;;;;;;7593632;19;20053;-76
2023/05/16 05:58:04;;;;;;;26.52;15.18;;;10.80;99.90;;;;;;7593151;19;20022;-73
2023/05/16 06:00:38;;;;;;;35.88;16.42;;;10.70;99.90;;;;;;7589399;19;20814;-74
2023/05/16 06:03:11;;;;;;;22.23;16.10;;;10.80;99.90;;;;;;7564285;19;20053;-76
2023/05/16 06:05:45;;;;;;;22.70;15.02;;;10.80;99.90;;;;;;7577680;19;20018;-76
2023/05/16 06:08:17;;;;;;;25.38;16.30;;;10.70;99.90;;;;;;7575237;19;20039;-75
2023/05/16 06:10:50;;;;;;;24.97;15.60;;;10.70;99.90;;;;;;7559562;19;20022;-75
2023/05/16 06:13:22;;;;;;;27.48;17.27;;;10.70;99.90;;;;;;7591960;19;20270;-75
2023/05/16 06:15:55;;;;;;;23.40;15.13;;;10.70;99.90;;;;;;7576233;19;20038;-75
2023/05/16 06:18:28;;;;;;;23.73;15.43;;;10.80;99.90;;;;;;7571112;19;20764;-75
2023/05/16 06:21:01;;;;;;;26.83;16.75;;;10.80;99.90;;;;;;7573602;19;21400;-75
2023/05/16 06:23:34;;;;;;;25.08;16.40;;;10.80;99.90;;;;;;7561653;19;20061;-75
2023/05/16 06:26:06;;;;;;;;;;;10.80;99.90;;;;;;7534592;19;20684;-75
2023/05/16 06:28:39;;;;;;;24.70;16.40;;;10.80;99.90;;;;;;7569396;19;19931;-75
2023/05/16 06:31:11;;;;;;;27.20;17.38;;;10.80;99.90;;;;;;7591385;19;20019;-75
2023/05/16 06:33:43;;;;;;;29.33;18.45;;;10.80;99.90;;;;;;7587595;19;20687;-75
2023/05/16 06:36:16;;;;;;;30.80;18.20;;;10.80;99.90;;;;;;7603222;19;20077;-75
2023/05/16 06:38:49;;;;;;;26.27;17.02;;;10.80;99.90;;;;;;7597640;19;20018;-75
2023/05/16 06:41:22;;;;;;;;;;;10.80;99.90;;;;;;7605582;19;20487;-75
2023/05/16 06:43:56;;;;;;;26.83;16.92;;;10.90;99.90;;;;;;7600105;19;19968;-75
2023/05/16 06:46:28;;;;;;;26.35;17.05;;;10.90;99.90;;;;;;7585243;19;20015;-75
2023/05/16 06:49:01;;;;;;;30.23;18.20;;;10.90;99.90;;;;;;7597007;19;20011;-75
2023/05/16 06:51:33;;;;;;;32.85;19.65;;;11.00;99.90;;;;;;7599738;19;20867;-75
2023/05/16 06:54:05;;;;;;;30.35;17.25;;;11.00;99.90;;;;;;7603574;19;20026;-75
2023/05/16 06:56:38;;;;;;;31.02;19.48;;;11.00;99.90;;;;;;7604552;19;20029;-75
2023/05/16 06:59:10;;;;;;;29.75;18.80;;;11.00;99.90;;;;;;7601062;19;20026;-75
2023/05/16 07:01:42;;;;;;;26.83;18.58;;;11.10;99.90;;;;;;7602745;19;20018;-75
2023/05/16 07:04:15;;;;;;;29.53;18.63;;;11.10;99.90;;;;;;7601014;19;20026;-75
2023/05/16 07:06:47;;;;;;;34.28;20.90;;;11.20;99.90;;;;;;7595846;19;20014;-75
2023/05/16 07:09:20;;;;;;;33.40;21.02;;;11.10;99.90;;;;;;7602586;19;20018;-75
2023/05/16 07:11:53;;;;;;;33.45;19.92;;;11.10;99.90;;;;;;7598825;19;20014;-75
2023/05/16 07:14:25;;;;;;;32.22;20.73;;;11.10;99.90;;;;;;7604563;19;20014;-75
2023/05/16 07:16:57;;;;;;;35.42;20.08;;;11.10;99.90;;;;;;7595071;19;20032;-76
2023/05/16 07:19:30;;;;;;;37.05;20.45;;;11.20;99.90;;;;;;7596290;19;20054;-75
2023/05/16 07:22:03;;;;;;;29.77;19.42;;;11.20;99.90;;;;;;7595702;19;20025;-75
2023/05/16 07:24:35;;;;;;;34.47;19.52;;;11.10;99.90;;;;;;7591434;19;20026;-76
2023/05/16 07:27:08;;;;;;;33.63;21.67;;;11.10;99.90;;;;;;7594836;19;21039;-75
2023/05/16 07:29:40;;;;;;;34.70;20.90;;;11.20;99.90;;;;;;7602893;19;20030;-76
2023/05/16 07:32:13;;;;;;;32.83;21.13;;;11.20;99.90;;;;;;7597846;19;20921;-75
2023/05/16 07:34:46;;;;;;;37.47;22.38;;;11.20;99.90;;;;;;7602681;19;20069;-75
2023/05/16 07:37:19;;;;;;;34.58;20.35;;;11.20;99.90;;;;;;7597130;19;20796;-75
2023/05/16 07:39:51;;;;;;;34.05;20.67;;;11.20;99.90;;;;;;7600181;19;20089;-75
2023/05/16 07:42:23;;;;;;;36.50;22.70;;;11.20;99.90;;;;;;7602619;19;20022;-75
2023/05/16 07:44:56;;;;;;;41.10;24.30;;;11.20;99.90;;;;;;7598105;19;20023;-75
2023/05/16 07:47:28;;;;;;;39.28;24.20;;;11.20;99.90;;;;;;7590529;19;20423;-75
2023/05/16 07:50:01;;;;;;;36.65;22.15;;;11.10;99.90;;;;;;7596358;19;20010;-75
2023/05/16 07:52:33;;;;;;;37.67;22.17;;;11.10;99.90;;;;;;7601104;19;20056;-75
2023/05/16 07:55:06;;;;;;;39.13;21.80;;;11.20;99.90;;;;;;7591289;19;20352;-75
2023/05/16 07:57:39;;;;;;;33.05;21.15;;;11.20;99.90;;;;;;7596706;19;20107;-75
2023/05/16 08:00:12;;;;;;;32.75;21.50;;;11.20;99.90;;;;;;7597951;19;20021;-75
2023/05/16 08:02:44;;;;;;;37.87;23.90;;;11.30;99.90;;;;;;7601335;19;20314;-75
2023/05/16 08:05:17;;;;;;;35.23;23.00;;;11.20;99.90;;;;;;7596972;19;20026;-75
2023/05/16 08:07:49;;;;;;;36.70;22.60;;;11.30;99.90;;;;;;7596628;19;20283;-75
2023/05/16 08:10:22;;;;;;;33.65;22.77;;;11.30;99.90;;;;;;7604044;19;20098;-75
2023/05/16 08:12:55;;;;;;;41.95;24.55;;;11.30;99.90;;;;;;7598271;19;20018;-75
2023/05/16 08:15:28;;;;;;;32.70;21.52;;;11.40;99.90;;;;;;7596445;19;20551;-75
2023/05/16 08:18:01;;;;;;;34.43;23.20;;;11.40;99.90;;;;;;7597409;19;20047;-76
2023/05/16 08:20:33;;;;;;;31.50;21.90;;;11.40;99.90;;;;;;7597537;19;20271;-76
2023/05/16 08:23:06;;;;;;;35.17;20.65;;;11.50;99.90;;;;;;7602091;19;20901;-75
2023/05/16 08:25:41;;;;;;;33.55;22.30;;;11.50;99.90;;;;;;7593944;19;20395;-75
2023/05/16 08:28:14;;;;;;;38.03;23.35;;;11.50;99.90;;;;;;7595807;19;20029;-75
2023/05/16 08:30:46;;;;;;;34.53;21.80;;;11.50;99.90;;;;;;7599065;19;20014;-75
2023/05/16 08:33:19;;;;;;;34.88;23.17;;;11.50;99.90;;;;;;7596717;19;20432;-75
2023/05/16 08:35:51;;;;;;;37.45;24.00;;;11.50;99.90;;;;;;7605427;19;20018;-76
2023/05/16 08:38:24;;;;;;;38.88;22.75;;;11.60;99.90;;;;;;7605753;19;20024;-76
2023/05/16 08:40:56;;;;;;;36.58;23.80;;;11.70;99.90;;;;;;7603433;19;20026;-74
2023/05/16 08:43:28;;;;;;;37.20;23.30;;;11.70;99.90;;;;;;7611885;19;20018;-72
2023/05/16 08:46:01;;;;;;;39.67;23.35;;;11.70;99.90;;;;;;7601598;19;20053;-73
2023/05/16 08:48:36;;;;;;;35.97;23.20;;;11.60;99.90;;;;;;7606884;19;20017;-74
2023/05/16 08:51:09;;;;;;;41.47;25.15;;;11.60;99.90;;;;;;7603264;19;20025;-74
2023/05/16 08:53:44;;;;;;;;;;;11.60;99.90;;;;;;7602306;19;20022;-76
2023/05/16 08:56:17;;;;;;;41.63;24.55;;;11.50;99.90;;;;;;7592476;19;19944;-74
2023/05/16 08:58:51;;;;;;;42.55;25.80;;;11.50;99.90;;;;;;7589822;19;20019;-74
2023/05/16 09:01:23;;;;;;;;;;;11.60;99.90;;;;;;7575601;19;20751;-74
2023/05/16 09:03:56;;;;;;;44.35;24.90;;;11.60;99.90;;;;;;7589039;19;19922;-73
2023/05/16 09:06:28;;;;;;;46.10;27.80;;;11.70;99.90;;;;;;7599767;19;20665;-75
2023/05/16 09:09:01;;;;;;;46.83;26.57;;;11.80;99.90;;;;;;7594347;19;20026;-76
2023/05/16 09:11:34;;;;;;;45.00;28.15;;;11.80;99.90;;;;;;7595576;19;20551;-75
2023/05/16 09:14:08;;;;;;;54.78;31.15;;;11.80;99.90;;;;;;7592467;19;20018;-75
2023/05/16 09:16:40;;;;;;;51.60;29.85;;;11.80;99.90;;;;;;7597266;19;20852;-75
2023/05/16 09:19:13;;;;;;;45.22;29.10;;;11.90;99.90;;;;;;7598373;19;20019;-75
2023/05/16 09:21:46;;;;;;;45.13;29.58;;;11.90;99.90;;;;;;7585556;19;20101;-75
2023/05/16 09:24:25;;;;;;;49.78;29.23;;;12.10;99.90;;;;;;7597687;19;20126;-73
2023/05/16 09:27:06;;;;;;;43.50;28.42;;;12.20;99.90;;;;;;6529896;19;10000563;-75
2023/05/16 09:29:42;;;;;;;50.70;29.75;;;12.10;99.90;;;;;;7594127;19;20037;-74
2023/05/16 09:32:16;;;;;;;42.08;26.70;;;12.10;99.90;;;;;;7575619;19;20021;-75
2023/05/16 09:34:50;;;;;;;44.83;27.52;;;12.20;99.90;;;;;;7579480;19;20025;-74
2023/05/16 09:37:22;;;;;;;39.35;25.30;;;12.30;99.90;;;;;;7584784;19;20018;-75
2023/05/16 09:39:55;;;;;;;36.95;26.13;;;12.40;99.90;;;;;;7580311;19;20047;-74
2023/05/16 09:42:30;;;;;;;41.70;28.15;;;12.50;99.90;;;;;;7593685;19;20547;-74
2023/05/16 09:45:03;;;;;;;46.30;29.38;;;12.60;99.90;;;;;;7580010;19;20025;-75
2023/05/16 09:47:35;;;;;;;46.50;31.13;;;12.70;99.90;;;;;;7563780;19;20471;-74
2023/05/16 09:50:08;;;;;;;43.45;28.10;;;12.90;99.90;;;;;;7594605;19;20283;-73
2023/05/16 09:52:42;;;;;;;44.10;26.25;;;12.90;99.90;;;;;;7572044;19;20054;-74
2023/05/16 09:55:14;;;;;;;42.78;28.05;;;13.10;99.90;;;;;;7577768;19;20014;-75
2023/05/16 09:57:47;;;;;;;42.88;26.73;;;13.10;99.90;;;;;;7588909;19;20480;-75
2023/05/16 10:00:20;;;;;;;35.75;26.05;;;13.20;99.90;;;;;;7593827;19;20951;-75
2023/05/16 10:02:55;;;;;;;34.42;24.77;;;13.20;99.90;;;;;;7596804;19;20049;-74
2023/05/16 10:05:28;;;;;;;38.67;26.48;;;13.20;99.90;;;;;;7564198;19;20022;-73
2023/05/16 10:08:02;;;;;;;40.53;25.65;;;13.20;99.90;;;;;;7566620;19;20117;-73
2023/05/16 10:10:35;;;;;;;;;;;13.20;99.90;;;;;;7590429;19;20800;-74
2023/05/16 10:13:10;;;;;;;37.67;25.23;;;13.20;99.90;;;;;;7546514;19;19939;-73
2023/05/16 10:15:44;;;;;;;32.08;22.55;;;13.20;99.90;;;;;;7591611;19;20022;-74
2023/05/16 10:18:18;;;;;;;;;;;13.20;99.90;;;;;;7580354;19;20086;-74
2023/05/16 10:20:54;;;;;;;37.08;24.30;;;13.10;99.90;;;;;;7588695;19;20259;-73
2023/05/16 10:23:27;;;;;;;34.35;22.90;;;13.10;99.90;;;;;;7565605;19;20014;-73
2023/05/16 10:26:03;;;;;;;37.83;23.67;;;13.10;99.90;;;;;;7569791;19;20017;-74
2023/05/16 10:28:35;;;;;;;34.40;23.45;;;13.10;99.90;;;;;;7585491;19;20685;-74
2023/05/16 10:31:10;;;;;;;28.83;21.55;;;13.20;99.90;;;;;;7590144;19;20022;-74
2023/05/16 10:33:42;;;;;;;33.00;23.40;;;13.10;99.90;;;;;;7583095;19;20010;-74
2023/05/16 10:36:16;;;;;;;36.15;24.77;;;13.20;99.90;;;;;;7584005;19;20022;-75
2023/05/16 10:38:51;;;;;;;34.28;24.58;;;13.20;99.90;;;;;;7574021;19;20102;-73
2023/05/16 10:41:24;;;;;;;33.20;24.35;;;13.10;99.90;;;;;;7549581;19;20011;-73
2023/05/16 10:43:57;;;;;;;35.37;24.60;;;13.10;99.90;;;;;;7595080;19;20353;-76
2023/05/16 10:46:31;;;;;;;40.60;27.17;;;13.20;99.90;;;;;;7586052;19;20023;-74
2023/05/16 10:49:19;;;;;;;93.85;51.13;;;13.20;99.90;;;;;;7595871;19;20024;-75
2023/05/16 10:52:14;;;;;;;48.13;31.05;;;13.20;99.90;;;;;;7600836;19;20035;-75
2023/05/16 10:54:51;;;;;;;70.72;40.85;;;13.20;99.90;;;;;;7602650;19;20025;-75
2023/05/16 10:57:23;;;;;;;50.28;31.17;;;13.20;99.90;;;;;;7602444;19;20014;-74
2023/05/16 11:00:00;;;;;;;35.53;25.20;;;13.20;99.90;;;;;;7602967;19;20026;-75
2023/05/16 11:02:40;;;;;;;37.10;26.67;;;13.20;99.90;;;;;;7611881;19;20509;-74
2023/05/16 11:05:18;;;;;;;37.08;24.85;;;13.20;99.90;;;;;;7612146;19;20033;-75
2023/05/16 11:08:03;;;;;;;36.90;25.80;;;13.20;99.90;;;;;;7611009;19;20029;-75
2023/05/16 11:10:36;;;;;;;39.20;26.63;;;13.10;99.90;;;;;;7603022;19;20014;-75
2023/05/16 11:13:08;;;;;;;39.08;26.85;;;13.20;99.90;;;;;;7583960;19;20972;-75
2023/05/16 11:15:41;;;;;;;43.22;27.38;;;13.10;99.90;;;;;;7580236;19;20565;-74
2023/05/16 11:18:15;;;;;;;38.50;27.33;;;13.10;99.90;;;;;;7554703;19;20780;-74
2023/05/16 11:20:51;;;;;;;38.53;27.30;;;13.10;99.90;;;;;;7507246;19;20029;-73
2023/05/16 11:23:25;;;;;;;40.90;26.67;;;13.20;99.90;;;;;;7521324;19;20585;-73
2023/05/16 11:25:59;;;;;;;42.28;29.25;;;13.10;99.90;;;;;;7565392;19;20604;-73
2023/05/16 11:28:32;;;;;;;37.67;27.23;;;13.20;99.90;;;;;;7596289;19;20018;-74
2023/05/16 11:31:04;;;;;;;42.65;29.63;;;13.00;99.90;;;;;;7566547;19;20019;-73
2023/05/16 11:33:38;;;;;;;39.35;28.73;;;13.00;99.90;;;;;;7578476;19;20014;-73
2023/05/16 11:36:11;;;;;;;44.03;28.75;;;13.10;99.90;;;;;;7575722;19;20018;-74
2023/05/16 11:38:47;;;;;;;40.15;28.17;;;13.10;99.90;;;;;;7599759;19;20085;-74
2023/05/16 11:41:21;;;;;;;39.78;27.95;;;13.10;99.90;;;;;;7565411;19;20014;-73
2023/05/16 11:43:53;;;;;;;41.83;26.92;;;13.20;99.90;;;;;;7569069;19;20402;-74
2023/05/16 11:46:26;;;;;;;44.58;28.75;;;13.30;99.90;;;;;;7529475;19;20117;-74
2023/05/16 11:48:58;;;;;;;42.40;30.30;;;13.30;99.90;;;;;;7541313;19;20485;-73
2023/05/16 11:51:33;;;;;;;40.28;28.00;;;13.30;99.90;;;;;;7538618;19;20113;-73
2023/05/16 11:54:08;;;;;;;44.30;29.98;;;13.20;99.90;;;;;;7520950;19;20021;-73
2023/05/16 11:56:41;;;;;;;42.67;30.77;;;13.20;99.90;;;;;;7577647;19;20011;-73
2023/05/16 11:59:14;;;;;;;43.33;29.45;;;13.10;99.90;;;;;;7563090;19;20011;-75
2023/05/16 12:01:48;;;;;;;42.85;29.23;;;13.10;99.90;;;;;;7583994;19;20121;-75
2023/05/16 12:04:21;;;;;;;47.08;31.20;;;13.10;99.90;;;;;;7581636;19;20018;-76
2023/05/16 12:07:00;;;;;;;46.58;27.92;;;13.10;99.90;;;;;;7513875;19;20018;-75
2023/05/16 12:09:32;;;;;;;39.97;27.00;;;13.20;99.90;;;;;;7545027;19;20479;-74
2023/05/16 12:12:06;;;;;;;40.13;28.30;;;13.20;99.90;;;;;;7566066;19;21134;-74
2023/05/16 12:14:38;;;;;;;33.60;24.88;;;13.20;99.90;;;;;;7567163;19;20021;-77
2023/05/16 12:17:10;;;;;;;35.08;23.95;;;13.20;99.90;;;;;;7583984;19;20866;-77
2023/05/16 12:19:45;;;;;;;32.58;22.85;;;13.10;99.90;;;;;;7566196;19;20244;-76
2023/05/16 12:22:19;;;;;;;30.58;22.13;;;13.10;99.90;;;;;;7567299;19;20022;-77
2023/05/16 12:24:52;;;;;;;28.60;21.05;;;13.10;99.90;;;;;;7555970;19;20022;-75
2023/05/16 12:27:25;;;;;;;28.08;20.85;;;13.00;99.90;;;;;;7553976;19;21182;-75
2023/05/16 12:29:57;;;;;;;27.20;19.05;;;13.10;99.90;;;;;;7579342;19;20045;-75
2023/05/16 12:32:35;;;;;;;29.20;18.85;;;13.20;99.90;;;;;;7587505;19;20024;-75
2023/05/16 12:35:10;;;;;;;27.70;19.63;;;13.20;99.90;;;;;;7529288;19;20026;-75
2023/05/16 12:37:43;;;;;;;27.52;19.60;;;13.00;99.90;;;;;;7514606;19;21330;-75
2023/05/16 12:40:15;;;;;;;28.85;20.88;;;13.10;99.90;;;;;;7565198;19;20014;-73
2023/05/16 12:42:52;;;;;;;27.90;20.27;;;13.10;99.90;;;;;;7564357;19;20014;-73
2023/05/16 12:45:28;;;;;;;33.33;21.33;;;13.00;99.90;;;;;;6558033;19;9999892;-73
2023/05/16 12:48:05;;;;;;;33.08;21.55;;;13.00;99.90;;;;;;7552913;19;20014;-73
2023/05/16 12:50:39;;;;;;;33.25;23.33;;;13.00;99.90;;;;;;7559356;19;20552;-74
2023/05/16 12:53:13;;;;;;;32.28;22.55;;;12.90;99.90;;;;;;7558737;19;20686;-74
2023/05/16 12:55:45;;;;;;;33.72;23.60;;;12.80;99.90;;;;;;7592551;19;20010;-74
2023/05/16 12:58:18;;;;;;;37.08;23.83;;;12.90;99.90;;;;;;7580213;19;20029;-74
2023/05/16 13:00:50;;;;;;;35.97;25.43;;;12.90;99.90;;;;;;7575267;19;20019;-75
2023/05/16 13:03:23;;;;;;;38.25;26.85;;;13.00;99.90;;;;;;7562637;19;20019;-74
2023/05/16 13:05:55;;;;;;;39.42;24.25;;;13.20;99.90;;;;;;7555810;19;20018;-74
2023/05/16 13:08:28;;;;;;;35.45;24.55;;;13.30;99.90;;;;;;7560505;19;22198;-75